sensor_id;sensor_type;location;lat;lon;timestamp;temperature;humidity
30308;DHT22;17114;52.314;8.910;2023-12-04T00:01:58;-0.60;99.90
30308;DHT22;17114;52.314;8.910;2023-12-04T00:04:25;-0.60;99.90
30308;DHT22;17114;52.314;8.910;2023-12-04T00:06:53;-0.60;99.90
30308;DHT22;17114;52.314;8.910;2023-12-04T00:09:19;-0.60;99.90
30308;DHT22;17114;52.314;8.910;2023-12-04T00:11:47;-0.60;99.90
30308;DHT22;17114;52.314;8.910;2023-12-04T00:14:13;-0.60;99.90
30308;DHT22;17114;52.314;8.910;2023-12-04T00:16:40;-0.60;99.90
30308;DHT22;17114;52.314;8.910;2023-12-04T00:19:07;-0.60;99.90
30308;DHT22;17114;52.314;8.910;2023-12-04T00:21:34;-0.60;99.90
30308;DHT22;17114;52.314;8.910;2023-12-04T00:24:01;-0.70;99.90
30308;DHT22;17114;52.314;8.910;2023-12-04T00:26:29;-0.70;99.90
30308;DHT22;17114;52.314;8.910;2023-12-04T00:28:56;-0.70;99.90
30308;DHT22;17114;52.314;8.910;2023-12-04T00:31:23;-0.70;99.90
30308;DHT22;17114;52.314;8.910;2023-12-04T00:33:50;-0.70;99.90
30308;DHT22;17114;52.314;8.910;2023-12-04T00:36:17;-0.70;99.90
30308;DHT22;17114;52.314;8.910;2023-12-04T00:38:46;-0.70;99.90
30308;DHT22;17114;52.314;8.910;2023-12-04T00:41:13;-0.70;99.90
30308;DHT22;17114;52.314;8.910;2023-12-04T00:43:40;-0.70;99.90
30308;DHT22;17114;52.314;8.910;2023-12-04T00:46:07;-0.60;99.90
30308;DHT22;17114;52.314;8.910;2023-12-04T00:48:34;-0.70;99.90
30308;DHT22;17114;52.314;8.910;2023-12-04T00:51:01;-0.60;99.90
30308;DHT22;17114;52.314;8.910;2023-12-04T00:53:28;-0.60;99.90
30308;DHT22;17114;52.314;8.910;2023-12-04T00:55:55;-0.60;99.90
30308;DHT22;17114;52.314;8.910;2023-12-04T00:58:22;-0.60;99.90
30308;DHT22;17114;52.314;8.910;2023-12-04T01:00:49;-0.60;99.90
30308;DHT22;17114;52.314;8.910;2023-12-04T01:03:18;-0.60;99.90
30308;DHT22;17114;52.314;8.910;2023-12-04T01:05:45;-0.60;99.90
30308;DHT22;17114;52.314;8.910;2023-12-04T01:08:12;-0.60;99.90
30308;DHT22;17114;52.314;8.910;2023-12-04T01:10:39;-0.60;99.90
30308;DHT22;17114;52.314;8.910;2023-12-04T01:13:06;-0.60;99.90
30308;DHT22;17114;52.314;8.910;2023-12-04T01:15:33;-0.60;99.90
30308;DHT22;17114;52.314;8.910;2023-12-04T01:18:00;-0.60;99.90
30308;DHT22;17114;52.314;8.910;2023-12-04T01:20:27;-0.60;99.90
30308;DHT22;17114;52.314;8.910;2023-12-04T01:22:54;-0.60;99.90
30308;DHT22;17114;52.314;8.910;2023-12-04T01:25:21;-0.60;99.90
30308;DHT22;17114;52.314;8.910;2023-12-04T01:27:48;-0.60;99.90
30308;DHT22;17114;52.314;8.910;2023-12-04T01:30:15;-0.70;99.90
30308;DHT22;17114;52.314;8.910;2023-12-04T01:32:42;-0.70;99.90
30308;DHT22;17114;52.314;8.910;2023-12-04T01:35:09;-0.70;99.90
30308;DHT22;17114;52.314;8.910;2023-12-04T01:37:37;-0.70;99.90
30308;DHT22;17114;52.314;8.910;2023-12-04T01:40:05;-0.70;99.90
30308;DHT22;17114;52.314;8.910;2023-12-04T01:42:33;-0.80;99.90
30308;DHT22;17114;52.314;8.910;2023-12-04T01:45:00;-0.70;99.90
30308;DHT22;17114;52.314;8.910;2023-12-04T01:47:28;-0.70;99.90
30308;DHT22;17114;52.314;8.910;2023-12-04T01:49:55;-0.80;99.90
30308;DHT22;17114;52.314;8.910;2023-12-04T01:52:22;-0.70;99.90
30308;DHT22;17114;52.314;8.910;2023-12-04T01:54:50;-0.80;99.90
30308;DHT22;17114;52.314;8.910;2023-12-04T01:57:18;-0.80;99.90
30308;DHT22;17114;52.314;8.910;2023-12-04T01:59:46;-0.80;99.90
30308;DHT22;17114;52.314;8.910;2023-12-04T02:02:13;-0.80;99.90
30308;DHT22;17114;52.314;8.910;2023-12-04T02:04:40;-0.70;99.90
30308;DHT22;17114;52.314;8.910;2023-12-04T02:07:07;-0.70;99.90
30308;DHT22;17114;52.314;8.910;2023-12-04T02:09:37;-0.70;99.90
30308;DHT22;17114;52.314;8.910;2023-12-04T02:12:04;-0.70;99.90
30308;DHT22;17114;52.314;8.910;2023-12-04T02:14:32;-0.70;99.90
30308;DHT22;17114;52.314;8.910;2023-12-04T02:17:01;-0.70;99.90
30308;DHT22;17114;52.314;8.910;2023-12-04T02:19:30;-0.70;99.90
30308;DHT22;17114;52.314;8.910;2023-12-04T02:21:57;-0.70;99.90
30308;DHT22;17114;52.314;8.910;2023-12-04T02:24:24;-0.70;99.90
30308;DHT22;17114;52.314;8.910;2023-12-04T02:26:55;-0.60;99.90
30308;DHT22;17114;52.314;8.910;2023-12-04T02:29:36;-0.70;99.90
30308;DHT22;17114;52.314;8.910;2023-12-04T02:32:06;-0.70;99.90
30308;DHT22;17114;52.314;8.910;2023-12-04T02:34:35;-0.70;99.90
30308;DHT22;17114;52.314;8.910;2023-12-04T02:37:03;-0.60;99.90
30308;DHT22;17114;52.314;8.910;2023-12-04T02:39:31;-0.60;99.90
30308;DHT22;17114;52.314;8.910;2023-12-04T02:41:58;-0.60;99.90
30308;DHT22;17114;52.314;8.910;2023-12-04T02:44:25;-0.60;99.90
30308;DHT22;17114;52.314;8.910;2023-12-04T02:46:51;-0.60;99.90
30308;DHT22;17114;52.314;8.910;2023-12-04T02:49:18;-0.60;99.90
30308;DHT22;17114;52.314;8.910;2023-12-04T02:51:45;-0.60;99.90
30308;DHT22;17114;52.314;8.910;2023-12-04T02:54:12;-0.60;99.90
30308;DHT22;17114;52.314;8.910;2023-12-04T02:56:39;-0.60;99.90
30308;DHT22;17114;52.314;8.910;2023-12-04T02:59:06;-0.50;99.90
30308;DHT22;17114;52.314;8.910;2023-12-04T03:01:32;-0.60;99.90
30308;DHT22;17114;52.314;8.910;2023-12-04T03:03:59;-0.60;99.90
30308;DHT22;17114;52.314;8.910;2023-12-04T03:06:26;-0.40;99.90
30308;DHT22;17114;52.314;8.910;2023-12-04T03:08:53;-0.60;99.90
30308;DHT22;17114;52.314;8.910;2023-12-04T03:11:20;-0.60;99.90
30308;DHT22;17114;52.314;8.910;2023-12-04T03:13:47;-0.50;99.90
30308;DHT22;17114;52.314;8.910;2023-12-04T03:16:18;-0.50;99.90
30308;DHT22;17114;52.314;8.910;2023-12-04T03:18:45;-0.60;99.90
30308;DHT22;17114;52.314;8.910;2023-12-04T03:21:12;-0.50;99.90
30308;DHT22;17114;52.314;8.910;2023-12-04T03:23:39;-0.50;99.90
30308;DHT22;17114;52.314;8.910;2023-12-04T03:26:06;-0.50;99.90
30308;DHT22;17114;52.314;8.910;2023-12-04T03:28:33;-0.50;99.90
30308;DHT22;17114;52.314;8.910;2023-12-04T03:31:00;-0.50;99.90
30308;DHT22;17114;52.314;8.910;2023-12-04T03:33:27;-0.50;99.90
30308;DHT22;17114;52.314;8.910;2023-12-04T03:35:54;-0.50;99.90
30308;DHT22;17114;52.314;8.910;2023-12-04T03:38:20;-0.50;99.90
30308;DHT22;17114;52.314;8.910;2023-12-04T03:40:47;-0.50;99.90
30308;DHT22;17114;52.314;8.910;2023-12-04T03:43:14;-0.50;99.90
30308;DHT22;17114;52.314;8.910;2023-12-04T03:45:41;-0.50;99.90
30308;DHT22;17114;52.314;8.910;2023-12-04T03:48:08;-0.60;99.90
30308;DHT22;17114;52.314;8.910;2023-12-04T03:50:35;-0.60;99.90
30308;DHT22;17114;52.314;8.910;2023-12-04T03:53:02;-0.60;99.90
30308;DHT22;17114;52.314;8.910;2023-12-04T03:55:29;-0.60;99.90
30308;DHT22;17114;52.314;8.910;2023-12-04T03:57:56;-0.60;99.90
30308;DHT22;17114;52.314;8.910;2023-12-04T04:00:24;-0.60;99.90
30308;DHT22;17114;52.314;8.910;2023-12-04T04:02:51;-0.60;99.90
30308;DHT22;17114;52.314;8.910;2023-12-04T04:05:18;-0.60;99.90
30308;DHT22;17114;52.314;8.910;2023-12-04T04:07:45;-0.60;99.90
30308;DHT22;17114;52.314;8.910;2023-12-04T04:10:12;-0.50;99.90
30308;DHT22;17114;52.314;8.910;2023-12-04T04:12:39;-0.50;99.90
30308;DHT22;17114;52.314;8.910;2023-12-04T04:15:06;-0.50;99.90
30308;DHT22;17114;52.314;8.910;2023-12-04T04:17:33;-0.50;99.90
30308;DHT22;17114;52.314;8.910;2023-12-04T04:20:00;-0.40;99.90
30308;DHT22;17114;52.314;8.910;2023-12-04T04:22:27;-0.40;99.90
30308;DHT22;17114;52.314;8.910;2023-12-04T04:24:56;-0.40;99.90
30308;DHT22;17114;52.314;8.910;2023-12-04T04:27:24;-0.30;99.90
30308;DHT22;17114;52.314;8.910;2023-12-04T04:29:50;-0.30;99.90
30308;DHT22;17114;52.314;8.910;2023-12-04T04:32:17;-0.30;99.90
30308;DHT22;17114;52.314;8.910;2023-12-04T04:34:44;-0.20;99.90
30308;DHT22;17114;52.314;8.910;2023-12-04T04:37:12;-0.20;99.90
30308;DHT22;17114;52.314;8.910;2023-12-04T04:39:42;-0.20;99.90
30308;DHT22;17114;52.314;8.910;2023-12-04T04:42:09;-0.20;99.90
30308;DHT22;17114;52.314;8.910;2023-12-04T04:44:36;-0.20;99.90
30308;DHT22;17114;52.314;8.910;2023-12-04T04:47:03;-0.20;99.90
30308;DHT22;17114;52.314;8.910;2023-12-04T04:49:30;-0.10;99.90
30308;DHT22;17114;52.314;8.910;2023-12-04T04:51:57;-0.10;99.90
30308;DHT22;17114;52.314;8.910;2023-12-04T04:54:24;-0.10;99.90
30308;DHT22;17114;52.314;8.910;2023-12-04T04:56:51;-0.10;99.90
30308;DHT22;17114;52.314;8.910;2023-12-04T04:59:18;-0.10;99.90
30308;DHT22;17114;52.314;8.910;2023-12-04T05:01:45;0.00;99.90
30308;DHT22;17114;52.314;8.910;2023-12-04T05:04:12;0.00;99.90
30308;DHT22;17114;52.314;8.910;2023-12-04T05:06:39;0.00;99.90
30308;DHT22;17114;52.314;8.910;2023-12-04T05:09:06;0.00;99.90
30308;DHT22;17114;52.314;8.910;2023-12-04T05:11:33;0.00;99.90
30308;DHT22;17114;52.314;8.910;2023-12-04T05:14:00;0.00;99.90
30308;DHT22;17114;52.314;8.910;2023-12-04T05:16:27;0.00;99.90
30308;DHT22;17114;52.314;8.910;2023-12-04T05:18:54;0.10;99.90
30308;DHT22;17114;52.314;8.910;2023-12-04T05:21:21;0.10;99.90
30308;DHT22;17114;52.314;8.910;2023-12-04T05:23:47;0.10;99.90
30308;DHT22;17114;52.314;8.910;2023-12-04T05:26:14;0.10;99.90
30308;DHT22;17114;52.314;8.910;2023-12-04T05:28:42;0.20;99.90
30308;DHT22;17114;52.314;8.910;2023-12-04T05:31:08;0.20;99.90
30308;DHT22;17114;52.314;8.910;2023-12-04T05:33:35;0.20;99.90
30308;DHT22;17114;52.314;8.910;2023-12-04T05:36:03;0.20;99.90
30308;DHT22;17114;52.314;8.910;2023-12-04T05:38:30;0.20;99.90
30308;DHT22;17114;52.314;8.910;2023-12-04T05:40:57;0.30;99.90
30308;DHT22;17114;52.314;8.910;2023-12-04T05:43:24;0.30;99.90
30308;DHT22;17114;52.314;8.910;2023-12-04T05:45:51;0.30;99.90
30308;DHT22;17114;52.314;8.910;2023-12-04T05:48:18;0.30;99.90
30308;DHT22;17114;52.314;8.910;2023-12-04T05:50:45;0.30;99.90
30308;DHT22;17114;52.314;8.910;2023-12-04T05:53:12;0.30;99.90
30308;DHT22;17114;52.314;8.910;2023-12-04T05:55:39;0.30;99.90
30308;DHT22;17114;52.314;8.910;2023-12-04T05:58:06;0.30;99.90
30308;DHT22;17114;52.314;8.910;2023-12-04T06:00:33;0.30;99.90
30308;DHT22;17114;52.314;8.910;2023-12-04T06:03:00;0.30;99.90
30308;DHT22;17114;52.314;8.910;2023-12-04T06:05:27;0.30;99.90
30308;DHT22;17114;52.314;8.910;2023-12-04T06:07:54;0.30;99.90
30308;DHT22;17114;52.314;8.910;2023-12-04T06:10:21;0.40;99.90
30308;DHT22;17114;52.314;8.910;2023-12-04T06:12:48;0.30;99.90
30308;DHT22;17114;52.314;8.910;2023-12-04T06:15:15;0.40;99.90
30308;DHT22;17114;52.314;8.910;2023-12-04T06:17:42;0.40;99.90
30308;DHT22;17114;52.314;8.910;2023-12-04T06:20:09;0.50;99.90
30308;DHT22;17114;52.314;8.910;2023-12-04T06:22:38;0.40;99.90
30308;DHT22;17114;52.314;8.910;2023-12-04T06:25:05;0.40;99.90
30308;DHT22;17114;52.314;8.910;2023-12-04T06:27:33;0.40;99.90
30308;DHT22;17114;52.314;8.910;2023-12-04T06:30:00;0.40;99.90
30308;DHT22;17114;52.314;8.910;2023-12-04T06:32:28;0.40;99.90
30308;DHT22;17114;52.314;8.910;2023-12-04T06:34:56;0.40;99.90
30308;DHT22;17114;52.314;8.910;2023-12-04T06:37:23;0.40;99.90
30308;DHT22;17114;52.314;8.910;2023-12-04T06:39:52;0.40;99.90
30308;DHT22;17114;52.314;8.910;2023-12-04T06:42:20;0.40;99.90
30308;DHT22;17114;52.314;8.910;2023-12-04T06:44:47;0.50;99.90
30308;DHT22;17114;52.314;8.910;2023-12-04T06:47:17;0.50;99.90
30308;DHT22;17114;52.314;8.910;2023-12-04T06:49:45;0.60;99.90
30308;DHT22;17114;52.314;8.910;2023-12-04T06:52:12;0.60;99.90
30308;DHT22;17114;52.314;8.910;2023-12-04T06:54:39;0.50;99.90
30308;DHT22;17114;52.314;8.910;2023-12-04T06:57:06;0.50;99.90
30308;DHT22;17114;52.314;8.910;2023-12-04T06:59:33;0.50;99.90
30308;DHT22;17114;52.314;8.910;2023-12-04T07:02:00;0.50;99.90
30308;DHT22;17114;52.314;8.910;2023-12-04T07:04:27;0.40;99.90
30308;DHT22;17114;52.314;8.910;2023-12-04T07:06:54;0.60;99.90
30308;DHT22;17114;52.314;8.910;2023-12-04T07:09:21;0.40;99.90
30308;DHT22;17114;52.314;8.910;2023-12-04T07:11:48;0.50;99.90
30308;DHT22;17114;52.314;8.910;2023-12-04T07:14:14;0.50;99.90
30308;DHT22;17114;52.314;8.910;2023-12-04T07:16:42;0.50;99.90
30308;DHT22;17114;52.314;8.910;2023-12-04T07:19:10;0.50;99.90
30308;DHT22;17114;52.314;8.910;2023-12-04T07:21:37;0.50;99.90
30308;DHT22;17114;52.314;8.910;2023-12-04T07:24:06;0.50;99.90
30308;DHT22;17114;52.314;8.910;2023-12-04T07:26:34;0.50;99.90
30308;DHT22;17114;52.314;8.910;2023-12-04T07:29:02;0.50;99.90
30308;DHT22;17114;52.314;8.910;2023-12-04T07:31:29;0.50;99.90
30308;DHT22;17114;52.314;8.910;2023-12-04T07:33:56;0.50;99.90
30308;DHT22;17114;52.314;8.910;2023-12-04T07:36:24;0.50;99.90
30308;DHT22;17114;52.314;8.910;2023-12-04T07:38:51;0.50;99.90
30308;DHT22;17114;52.314;8.910;2023-12-04T07:41:20;0.50;99.90
30308;DHT22;17114;52.314;8.910;2023-12-04T07:43:48;0.50;99.90
30308;DHT22;17114;52.314;8.910;2023-12-04T07:46:15;0.50;99.90
30308;DHT22;17114;52.314;8.910;2023-12-04T07:48:43;0.50;99.90
30308;DHT22;17114;52.314;8.910;2023-12-04T07:51:13;0.60;99.90
30308;DHT22;17114;52.314;8.910;2023-12-04T07:53:40;0.60;99.90
30308;DHT22;17114;52.314;8.910;2023-12-04T07:56:07;0.60;99.90
30308;DHT22;17114;52.314;8.910;2023-12-04T07:58:34;0.60;99.90
30308;DHT22;17114;52.314;8.910;2023-12-04T08:01:01;0.60;99.90
30308;DHT22;17114;52.314;8.910;2023-12-04T08:03:29;0.60;99.90
30308;DHT22;17114;52.314;8.910;2023-12-04T08:05:56;0.60;99.90
30308;DHT22;17114;52.314;8.910;2023-12-04T08:08:23;0.70;99.90
30308;DHT22;17114;52.314;8.910;2023-12-04T08:10:50;0.70;99.90
30308;DHT22;17114;52.314;8.910;2023-12-04T08:13:17;0.70;99.90
30308;DHT22;17114;52.314;8.910;2023-12-04T08:15:44;0.70;99.90
30308;DHT22;17114;52.314;8.910;2023-12-04T08:18:11;0.80;99.90
30308;DHT22;17114;52.314;8.910;2023-12-04T08:20:38;0.80;99.90
30308;DHT22;17114;52.314;8.910;2023-12-04T08:23:07;0.80;99.90
30308;DHT22;17114;52.314;8.910;2023-12-04T08:25:34;0.80;99.90
30308;DHT22;17114;52.314;8.910;2023-12-04T08:28:06;0.80;99.90
30308;DHT22;17114;52.314;8.910;2023-12-04T08:30:33;0.80;99.90
30308;DHT22;17114;52.314;8.910;2023-12-04T08:33:00;0.90;99.90
30308;DHT22;17114;52.314;8.910;2023-12-04T08:35:27;0.90;99.90
30308;DHT22;17114;52.314;8.910;2023-12-04T08:37:54;0.90;99.90
30308;DHT22;17114;52.314;8.910;2023-12-04T08:40:21;0.90;99.90
30308;DHT22;17114;52.314;8.910;2023-12-04T08:42:48;0.90;99.90
30308;DHT22;17114;52.314;8.910;2023-12-04T08:45:15;1.00;99.90
30308;DHT22;17114;52.314;8.910;2023-12-04T08:47:45;1.00;99.90
30308;DHT22;17114;52.314;8.910;2023-12-04T08:50:13;1.10;99.90
30308;DHT22;17114;52.314;8.910;2023-12-04T08:52:40;1.10;99.90
30308;DHT22;17114;52.314;8.910;2023-12-04T08:55:09;1.20;99.90
30308;DHT22;17114;52.314;8.910;2023-12-04T08:57:37;1.30;99.90
30308;DHT22;17114;52.314;8.910;2023-12-04T09:00:05;1.10;99.90
30308;DHT22;17114;52.314;8.910;2023-12-04T09:02:32;1.10;99.90
30308;DHT22;17114;52.314;8.910;2023-12-04T09:04:59;1.20;99.90
30308;DHT22;17114;52.314;8.910;2023-12-04T09:07:26;1.20;99.90
30308;DHT22;17114;52.314;8.910;2023-12-04T09:10:13;1.20;99.90
30308;DHT22;17114;52.314;8.910;2023-12-04T09:13:00;1.20;99.90
30308;DHT22;17114;52.314;8.910;2023-12-04T09:15:27;1.20;99.90
30308;DHT22;17114;52.314;8.910;2023-12-04T09:17:55;1.20;99.90
30308;DHT22;17114;52.314;8.910;2023-12-04T09:20:22;1.20;99.90
30308;DHT22;17114;52.314;8.910;2023-12-04T09:22:48;1.30;99.90
30308;DHT22;17114;52.314;8.910;2023-12-04T09:25:23;1.40;99.90
30308;DHT22;17114;52.314;8.910;2023-12-04T09:27:50;1.30;99.90
30308;DHT22;17114;52.314;8.910;2023-12-04T09:30:17;1.30;99.90
30308;DHT22;17114;52.314;8.910;2023-12-04T09:32:45;1.30;99.90
30308;DHT22;17114;52.314;8.910;2023-12-04T09:35:12;1.30;99.90
30308;DHT22;17114;52.314;8.910;2023-12-04T09:37:39;1.30;99.90
30308;DHT22;17114;52.314;8.910;2023-12-04T09:40:07;1.30;99.90
30308;DHT22;17114;52.314;8.910;2023-12-04T09:42:35;1.30;99.90
30308;DHT22;17114;52.314;8.910;2023-12-04T09:45:02;1.40;99.90
30308;DHT22;17114;52.314;8.910;2023-12-04T09:47:30;1.40;99.90
30308;DHT22;17114;52.314;8.910;2023-12-04T09:49:58;1.40;99.90
30308;DHT22;17114;52.314;8.910;2023-12-04T09:52:30;1.40;99.90
30308;DHT22;17114;52.314;8.910;2023-12-04T09:54:58;1.40;99.90
30308;DHT22;17114;52.314;8.910;2023-12-04T09:57:25;1.50;99.90
30308;DHT22;17114;52.314;8.910;2023-12-04T09:59:52;1.50;99.90
30308;DHT22;17114;52.314;8.910;2023-12-04T10:02:20;1.50;99.90
30308;DHT22;17114;52.314;8.910;2023-12-04T10:04:48;1.50;99.90
30308;DHT22;17114;52.314;8.910;2023-12-04T10:07:15;1.60;99.90
30308;DHT22;17114;52.314;8.910;2023-12-04T10:09:43;1.60;99.90
30308;DHT22;17114;52.314;8.910;2023-12-04T10:12:10;1.70;99.90
30308;DHT22;17114;52.314;8.910;2023-12-04T10:14:37;1.70;99.90
30308;DHT22;17114;52.314;8.910;2023-12-04T10:17:14;1.70;99.90
30308;DHT22;17114;52.314;8.910;2023-12-04T10:19:42;1.70;99.90
30308;DHT22;17114;52.314;8.910;2023-12-04T10:22:09;1.90;99.90
30308;DHT22;17114;52.314;8.910;2023-12-04T10:24:40;1.80;99.90
30308;DHT22;17114;52.314;8.910;2023-12-04T10:27:09;1.80;99.90
30308;DHT22;17114;52.314;8.910;2023-12-04T10:29:47;1.80;99.90
30308;DHT22;17114;52.314;8.910;2023-12-04T10:32:19;1.80;99.90
30308;DHT22;17114;52.314;8.910;2023-12-04T10:34:49;1.80;99.90
30308;DHT22;17114;52.314;8.910;2023-12-04T10:37:16;1.80;99.90
30308;DHT22;17114;52.314;8.910;2023-12-04T10:39:48;1.80;99.90
30308;DHT22;17114;52.314;8.910;2023-12-04T10:42:29;1.80;99.90
30308;DHT22;17114;52.314;8.910;2023-12-04T10:44:58;1.80;99.90
30308;DHT22;17114;52.314;8.910;2023-12-04T10:47:28;1.80;99.90
30308;DHT22;17114;52.314;8.910;2023-12-04T10:49:57;1.90;99.90
30308;DHT22;17114;52.314;8.910;2023-12-04T10:52:24;1.90;99.90
30308;DHT22;17114;52.314;8.910;2023-12-04T10:54:52;1.80;99.90
30308;DHT22;17114;52.314;8.910;2023-12-04T10:57:36;1.90;99.90
30308;DHT22;17114;52.314;8.910;2023-12-04T11:00:05;1.90;99.90
30308;DHT22;17114;52.314;8.910;2023-12-04T11:02:34;1.90;99.90
30308;DHT22;17114;52.314;8.910;2023-12-04T11:05:07;1.90;99.90
30308;DHT22;17114;52.314;8.910;2023-12-04T11:08:08;1.90;99.90
30308;DHT22;17114;52.314;8.910;2023-12-04T11:11:04;1.90;99.90
30308;DHT22;17114;52.314;8.910;2023-12-04T11:13:39;1.90;99.90
30308;DHT22;17114;52.314;8.910;2023-12-04T11:16:23;1.90;99.90
30308;DHT22;17114;52.314;8.910;2023-12-04T11:19:01;1.90;99.90
30308;DHT22;17114;52.314;8.910;2023-12-04T11:21:32;1.80;99.90
30308;DHT22;17114;52.314;8.910;2023-12-04T11:24:01;1.90;99.90
30308;DHT22;17114;52.314;8.910;2023-12-04T11:26:29;1.90;99.90
30308;DHT22;17114;52.314;8.910;2023-12-04T11:28:56;1.90;99.90
30308;DHT22;17114;52.314;8.910;2023-12-04T11:31:24;1.90;99.90
30308;DHT22;17114;52.314;8.910;2023-12-04T11:33:51;1.90;99.90
30308;DHT22;17114;52.314;8.910;2023-12-04T11:36:19;1.90;99.90
30308;DHT22;17114;52.314;8.910;2023-12-04T11:38:46;2.00;99.90
30308;DHT22;17114;52.314;8.910;2023-12-04T11:43:49;1.90;99.90
30308;DHT22;17114;52.314;8.910;2023-12-04T11:46:20;1.90;99.90
30308;DHT22;17114;52.314;8.910;2023-12-04T11:48:55;1.90;99.90
30308;DHT22;17114;52.314;8.910;2023-12-04T11:54:15;1.90;99.90
30308;DHT22;17114;52.314;8.910;2023-12-04T11:59:39;1.90;99.90
30308;DHT22;17114;52.314;8.910;2023-12-04T12:02:11;1.90;99.90
30308;DHT22;17114;52.314;8.910;2023-12-04T12:04:38;1.90;99.90
30308;DHT22;17114;52.314;8.910;2023-12-04T12:07:05;2.00;99.90
30308;DHT22;17114;52.314;8.910;2023-12-04T12:09:33;2.00;99.90
30308;DHT22;17114;52.314;8.910;2023-12-04T12:12:04;2.00;99.90
30308;DHT22;17114;52.314;8.910;2023-12-04T12:14:31;2.00;99.90
30308;DHT22;17114;52.314;8.910;2023-12-04T12:16:59;2.00;99.90
30308;DHT22;17114;52.314;8.910;2023-12-04T12:19:27;2.00;99.90
30308;DHT22;17114;52.314;8.910;2023-12-04T12:21:55;2.00;99.90
30308;DHT22;17114;52.314;8.910;2023-12-04T12:24:23;2.00;99.90
30308;DHT22;17114;52.314;8.910;2023-12-04T12:26:52;1.90;99.90
30308;DHT22;17114;52.314;8.910;2023-12-04T12:29:20;2.00;99.90
30308;DHT22;17114;52.314;8.910;2023-12-04T12:31:47;2.00;99.90
30308;DHT22;17114;52.314;8.910;2023-12-04T12:34:14;1.90;99.90
30308;DHT22;17114;52.314;8.910;2023-12-04T12:36:41;2.00;99.90
30308;DHT22;17114;52.314;8.910;2023-12-04T12:39:09;2.00;99.90
30308;DHT22;17114;52.314;8.910;2023-12-04T12:41:36;2.00;99.90
30308;DHT22;17114;52.314;8.910;2023-12-04T12:44:03;2.00;99.90
30308;DHT22;17114;52.314;8.910;2023-12-04T12:46:30;2.00;99.90
30308;DHT22;17114;52.314;8.910;2023-12-04T12:48:57;2.00;99.90
30308;DHT22;17114;52.314;8.910;2023-12-04T12:51:26;2.00;99.90
30308;DHT22;17114;52.314;8.910;2023-12-04T12:53:53;2.00;99.90
30308;DHT22;17114;52.314;8.910;2023-12-04T12:56:20;2.10;99.90
30308;DHT22;17114;52.314;8.910;2023-12-04T12:58:49;2.10;99.90
30308;DHT22;17114;52.314;8.910;2023-12-04T13:01:16;2.10;99.90
30308;DHT22;17114;52.314;8.910;2023-12-04T13:03:45;2.10;99.90
30308;DHT22;17114;52.314;8.910;2023-12-04T13:06:14;2.10;99.90
30308;DHT22;17114;52.314;8.910;2023-12-04T13:08:41;2.00;99.90
30308;DHT22;17114;52.314;8.910;2023-12-04T13:11:08;2.10;99.90
30308;DHT22;17114;52.314;8.910;2023-12-04T13:13:35;2.10;99.90
30308;DHT22;17114;52.314;8.910;2023-12-04T13:16:02;2.10;99.90
30308;DHT22;17114;52.314;8.910;2023-12-04T13:18:29;2.10;99.90
30308;DHT22;17114;52.314;8.910;2023-12-04T13:20:58;2.10;99.90
30308;DHT22;17114;52.314;8.910;2023-12-04T13:23:25;2.10;99.90
30308;DHT22;17114;52.314;8.910;2023-12-04T13:25:52;2.10;99.90
30308;DHT22;17114;52.314;8.910;2023-12-04T13:28:22;2.00;99.90
30308;DHT22;17114;52.314;8.910;2023-12-04T13:31:01;2.20;99.90
30308;DHT22;17114;52.314;8.910;2023-12-04T13:33:28;2.00;99.90
30308;DHT22;17114;52.314;8.910;2023-12-04T13:35:55;2.00;99.90
30308;DHT22;17114;52.314;8.910;2023-12-04T13:38:22;2.00;99.90
30308;DHT22;17114;52.314;8.910;2023-12-04T13:40:59;2.00;99.90
30308;DHT22;17114;52.314;8.910;2023-12-04T13:43:35;2.00;99.90
30308;DHT22;17114;52.314;8.910;2023-12-04T13:46:16;2.00;99.90
30308;DHT22;17114;52.314;8.910;2023-12-04T13:48:43;2.10;99.90
30308;DHT22;17114;52.314;8.910;2023-12-04T13:51:12;2.20;99.90
30308;DHT22;17114;52.314;8.910;2023-12-04T13:53:40;2.00;99.90
30308;DHT22;17114;52.314;8.910;2023-12-04T13:56:16;2.00;99.90
30308;DHT22;17114;52.314;8.910;2023-12-04T13:59:06;2.00;99.90
30308;DHT22;17114;52.314;8.910;2023-12-04T14:01:34;2.00;99.90
30308;DHT22;17114;52.314;8.910;2023-12-04T14:04:08;2.00;99.90
30308;DHT22;17114;52.314;8.910;2023-12-04T14:06:36;2.00;99.90
30308;DHT22;17114;52.314;8.910;2023-12-04T14:09:03;2.00;99.90
30308;DHT22;17114;52.314;8.910;2023-12-04T14:11:44;2.00;99.90
30308;DHT22;17114;52.314;8.910;2023-12-04T14:14:12;2.00;99.90
30308;DHT22;17114;52.314;8.910;2023-12-04T14:16:42;1.90;99.90
30308;DHT22;17114;52.314;8.910;2023-12-04T14:19:09;2.00;99.90
30308;DHT22;17114;52.314;8.910;2023-12-04T14:21:36;1.90;99.90
30308;DHT22;17114;52.314;8.910;2023-12-04T14:24:04;1.90;99.90
30308;DHT22;17114;52.314;8.910;2023-12-04T14:26:31;1.90;99.90
30308;DHT22;17114;52.314;8.910;2023-12-04T14:28:58;1.90;99.90
30308;DHT22;17114;52.314;8.910;2023-12-04T14:31:28;1.90;99.90
30308;DHT22;17114;52.314;8.910;2023-12-04T14:33:54;1.90;99.90
30308;DHT22;17114;52.314;8.910;2023-12-04T14:36:22;1.90;99.90
30308;DHT22;17114;52.314;8.910;2023-12-04T14:38:49;2.00;99.90
30308;DHT22;17114;52.314;8.910;2023-12-04T14:41:16;1.80;99.90
30308;DHT22;17114;52.314;8.910;2023-12-04T14:43:43;1.90;99.90
30308;DHT22;17114;52.314;8.910;2023-12-04T14:46:10;1.90;99.90
30308;DHT22;17114;52.314;8.910;2023-12-04T14:48:37;1.80;99.90
30308;DHT22;17114;52.314;8.910;2023-12-04T14:51:07;1.90;99.90
30308;DHT22;17114;52.314;8.910;2023-12-04T14:53:34;1.80;99.90
30308;DHT22;17114;52.314;8.910;2023-12-04T14:56:18;1.80;99.90
30308;DHT22;17114;52.314;8.910;2023-12-04T14:59:03;1.80;99.90
30308;DHT22;17114;52.314;8.910;2023-12-04T15:01:33;1.80;99.90
30308;DHT22;17114;52.314;8.910;2023-12-04T15:04:19;1.80;99.90
30308;DHT22;17114;52.314;8.910;2023-12-04T15:07:15;1.80;99.90
30308;DHT22;17114;52.314;8.910;2023-12-04T15:09:48;1.80;99.90
30308;DHT22;17114;52.314;8.910;2023-12-04T15:12:33;1.70;99.90
30308;DHT22;17114;52.314;8.910;2023-12-04T15:15:20;1.70;99.90
30308;DHT22;17114;52.314;8.910;2023-12-04T15:18:07;1.70;99.90
30308;DHT22;17114;52.314;8.910;2023-12-04T15:20:52;1.80;99.90
30308;DHT22;17114;52.314;8.910;2023-12-04T15:23:20;1.60;99.90
30308;DHT22;17114;52.314;8.910;2023-12-04T15:25:46;1.60;99.90
30308;DHT22;17114;52.314;8.910;2023-12-04T15:28:13;1.60;99.90
30308;DHT22;17114;52.314;8.910;2023-12-04T15:30:40;1.60;99.90
30308;DHT22;17114;52.314;8.910;2023-12-04T15:33:11;1.60;99.90
30308;DHT22;17114;52.314;8.910;2023-12-04T15:35:38;1.60;99.90
30308;DHT22;17114;52.314;8.910;2023-12-04T15:38:05;1.50;99.90
30308;DHT22;17114;52.314;8.910;2023-12-04T15:40:33;1.50;99.90
30308;DHT22;17114;52.314;8.910;2023-12-04T15:43:01;1.50;99.90
30308;DHT22;17114;52.314;8.910;2023-12-04T15:45:28;1.40;99.90
30308;DHT22;17114;52.314;8.910;2023-12-04T15:47:55;1.50;99.90
30308;DHT22;17114;52.314;8.910;2023-12-04T15:50:22;1.40;99.90
30308;DHT22;17114;52.314;8.910;2023-12-04T15:52:49;1.30;99.90
30308;DHT22;17114;52.314;8.910;2023-12-04T15:55:16;1.50;99.90
30308;DHT22;17114;52.314;8.910;2023-12-04T15:57:43;1.30;99.90
30308;DHT22;17114;52.314;8.910;2023-12-04T16:00:10;1.30;99.90